sensor_id;sensor_type;location;lat;lon;timestamp;P1;durP1;ratioP1;P2;durP2;ratioP2
75356;SDS011;63946;51.986;5.930;2022-11-04T06:32:28;7.82;;;4.43;;
75356;SDS011;63946;51.986;5.930;2022-11-04T06:34:59;5.88;;;4.25;;
75356;SDS011;63946;51.986;5.930;2022-11-04T06:37:30;7.05;;;4.03;;
75356;SDS011;63946;51.986;5.930;2022-11-04T06:39:59;11.05;;;3.78;;
75356;SDS011;63946;51.986;5.930;2022-11-04T06:42:28;6.53;;;3.83;;
75356;SDS011;63946;51.986;5.930;2022-11-04T06:44:57;7.75;;;4.10;;
75356;SDS011;63946;51.986;5.930;2022-11-04T06:47:26;5.72;;;3.85;;
75356;SDS011;63946;51.986;5.930;2022-11-04T06:49:54;4.10;;;3.33;;
75356;SDS011;63946;51.986;5.930;2022-11-04T06:52:26;9.52;;;4.18;;
75356;SDS011;63946;51.986;5.930;2022-11-04T06:54:55;10.13;;;4.68;;
75356;SDS011;63946;51.986;5.930;2022-11-04T06:57:24;6.93;;;3.97;;
75356;SDS011;63946;51.986;5.930;2022-11-04T06:59:53;7.43;;;3.55;;
75356;SDS011;63946;51.986;5.930;2022-11-04T07:02:21;8.60;;;5.05;;
75356;SDS011;63946;51.986;5.930;2022-11-04T07:04:53;7.75;;;2.70;;
75356;SDS011;63946;51.986;5.930;2022-11-04T07:07:24;7.00;;;3.65;;
75356;SDS011;63946;51.986;5.930;2022-11-04T07:09:56;7.60;;;4.15;;
75356;SDS011;63946;51.986;5.930;2022-11-04T07:12:25;5.97;;;3.45;;
75356;SDS011;63946;51.986;5.930;2022-11-04T07:14:54;7.15;;;3.63;;
75356;SDS011;63946;51.986;5.930;2022-11-04T07:17:23;4.05;;;2.65;;
75356;SDS011;63946;51.986;5.930;2022-11-04T07:19:52;5.55;;;3.05;;
75356;SDS011;63946;51.986;5.930;2022-11-04T07:22:20;3.80;;;3.13;;
75356;SDS011;63946;51.986;5.930;2022-11-04T07:24:49;4.82;;;3.03;;
75356;SDS011;63946;51.986;5.930;2022-11-04T07:27:21;4.90;;;3.53;;
75356;SDS011;63946;51.986;5.930;2022-11-04T07:29:50;6.57;;;3.45;;
75356;SDS011;63946;51.986;5.930;2022-11-04T07:32:21;3.83;;;2.42;;
75356;SDS011;63946;51.986;5.930;2022-11-04T07:34:53;6.28;;;3.90;;
75356;SDS011;63946;51.986;5.930;2022-11-04T07:37:22;4.28;;;3.42;;
75356;SDS011;63946;51.986;5.930;2022-11-04T07:39:51;6.40;;;3.42;;
75356;SDS011;63946;51.986;5.930;2022-11-04T07:42:20;6.43;;;3.00;;
75356;SDS011;63946;51.986;5.930;2022-11-04T07:44:53;5.40;;;3.50;;
75356;SDS011;63946;51.986;5.930;2022-11-04T07:47:24;4.82;;;3.30;;
75356;SDS011;63946;51.986;5.930;2022-11-04T07:49:54;7.05;;;3.50;;
75356;SDS011;63946;51.986;5.930;2022-11-04T07:52:26;6.85;;;3.13;;
75356;SDS011;63946;51.986;5.930;2022-11-04T07:54:55;8.13;;;4.10;;
75356;SDS011;63946;51.986;5.930;2022-11-04T07:57:24;5.63;;;3.60;;
75356;SDS011;63946;51.986;5.930;2022-11-04T07:59:52;6.80;;;3.63;;
75356;SDS011;63946;51.986;5.930;2022-11-04T08:02:21;7.70;;;3.28;;
75356;SDS011;63946;51.986;5.930;2022-11-04T08:04:50;5.13;;;3.28;;
75356;SDS011;63946;51.986;5.930;2022-11-04T08:07:19;12.35;;;3.97;;
75356;SDS011;63946;51.986;5.930;2022-11-04T08:09:48;6.95;;;3.30;;
75356;SDS011;63946;51.986;5.930;2022-11-04T08:12:16;7.72;;;3.97;;
75356;SDS011;63946;51.986;5.930;2022-11-04T08:14:46;10.93;;;3.80;;
75356;SDS011;63946;51.986;5.930;2022-11-04T08:17:15;5.28;;;3.83;;
75356;SDS011;63946;51.986;5.930;2022-11-04T08:19:45;8.75;;;3.63;;
75356;SDS011;63946;51.986;5.930;2022-11-04T08:22:14;6.38;;;3.45;;
75356;SDS011;63946;51.986;5.930;2022-11-04T08:24:43;6.22;;;3.55;;
75356;SDS011;63946;51.986;5.930;2022-11-04T08:27:15;10.40;;;4.28;;
75356;SDS011;63946;51.986;5.930;2022-11-04T08:29:47;9.57;;;4.20;;
75356;SDS011;63946;51.986;5.930;2022-11-04T08:32:19;10.63;;;4.13;;
75356;SDS011;63946;51.986;5.930;2022-11-04T08:34:48;7.10;;;3.35;;
75356;SDS011;63946;51.986;5.930;2022-11-04T08:37:17;6.65;;;3.95;;
75356;SDS011;63946;51.986;5.930;2022-11-04T08:39:46;6.32;;;3.67;;
75356;SDS011;63946;51.986;5.930;2022-11-04T08:42:15;5.93;;;3.60;;
75356;SDS011;63946;51.986;5.930;2022-11-04T08:44:44;6.25;;;3.50;;
75356;SDS011;63946;51.986;5.930;2022-11-04T08:49:43;10.50;;;3.97;;
75356;SDS011;63946;51.986;5.930;2022-11-04T08:52:12;11.57;;;3.65;;
75356;SDS011;63946;51.986;5.930;2022-11-04T08:54:42;7.55;;;3.30;;
75356;SDS011;63946;51.986;5.930;2022-11-04T08:57:11;7.47;;;4.00;;
75356;SDS011;63946;51.986;5.930;2022-11-04T08:59:40;9.30;;;3.67;;
75356;SDS011;63946;51.986;5.930;2022-11-04T09:02:11;7.50;;;4.00;;
75356;SDS011;63946;51.986;5.930;2022-11-04T09:04:42;6.45;;;3.95;;
75356;SDS011;63946;51.986;5.930;2022-11-04T09:07:11;5.68;;;2.85;;
75356;SDS011;63946;51.986;5.930;2022-11-04T09:09:41;7.47;;;3.65;;
75356;SDS011;63946;51.986;5.930;2022-11-04T09:12:10;11.43;;;3.97;;
75356;SDS011;63946;51.986;5.930;2022-11-04T09:14:39;7.07;;;3.95;;
75356;SDS011;63946;51.986;5.930;2022-11-04T09:17:08;9.48;;;4.30;;
75356;SDS011;63946;51.986;5.930;2022-11-04T09:19:37;7.80;;;3.65;;
75356;SDS011;63946;51.986;5.930;2022-11-04T09:22:05;7.53;;;3.95;;
75356;SDS011;63946;51.986;5.930;2022-11-04T09:24:34;9.40;;;4.05;;
75356;SDS011;63946;51.986;5.930;2022-11-04T09:27:03;12.00;;;5.25;;
75356;SDS011;63946;51.986;5.930;2022-11-04T09:29:33;7.93;;;4.43;;
75356;SDS011;63946;51.986;5.930;2022-11-04T09:32:02;9.85;;;4.25;;
75356;SDS011;63946;51.986;5.930;2022-11-04T09:34:31;8.40;;;3.60;;
75356;SDS011;63946;51.986;5.930;2022-11-04T09:37:04;8.85;;;5.45;;
75356;SDS011;63946;51.986;5.930;2022-11-04T09:39:33;7.82;;;4.68;;
75356;SDS011;63946;51.986;5.930;2022-11-04T09:45:16;7.03;;;3.95;;
75356;SDS011;63946;51.986;5.930;2022-11-04T09:47:50;10.32;;;4.65;;
75356;SDS011;63946;51.986;5.930;2022-11-04T09:50:26;6.85;;;4.20;;
75356;SDS011;63946;51.986;5.930;2022-11-04T09:53:03;8.10;;;4.50;;
75356;SDS011;63946;51.986;5.930;2022-11-04T09:58:47;10.35;;;5.55;;
75356;SDS011;63946;51.986;5.930;2022-11-04T10:01:22;8.90;;;5.55;;
75356;SDS011;63946;51.986;5.930;2022-11-04T10:06:57;10.05;;;5.60;;
75356;SDS011;63946;51.986;5.930;2022-11-04T10:17:40;13.40;;;6.68;;
75356;SDS011;63946;51.986;5.930;2022-11-04T10:20:36;9.73;;;7.35;;
75356;SDS011;63946;51.986;5.930;2022-11-04T10:23:36;7.07;;;5.70;;
75356;SDS011;63946;51.986;5.930;2022-11-04T10:26:27;8.23;;;7.28;;
75356;SDS011;63946;51.986;5.930;2022-11-04T10:29:13;10.25;;;7.07;;
75356;SDS011;63946;51.986;5.930;2022-11-04T10:31:44;12.25;;;6.85;;
75356;SDS011;63946;51.986;5.930;2022-11-04T10:34:22;12.43;;;6.50;;
75356;SDS011;63946;51.986;5.930;2022-11-04T10:36:54;12.25;;;6.18;;
75356;SDS011;63946;51.986;5.930;2022-11-04T10:41:55;10.70;;;8.68;;
75356;SDS011;63946;51.986;5.930;2022-11-04T10:44:27;11.98;;;7.03;;
75356;SDS011;63946;51.986;5.930;2022-11-04T10:52:31;13.00;;;7.50;;
75356;SDS011;63946;51.986;5.930;2022-11-04T10:55:04;12.27;;;7.75;;
75356;SDS011;63946;51.986;5.930;2022-11-04T10:57:42;12.07;;;8.32;;
75356;SDS011;63946;51.986;5.930;2022-11-04T11:00:30;18.40;;;8.48;;
75356;SDS011;63946;51.986;5.930;2022-11-04T11:06:09;12.93;;;8.10;;
75356;SDS011;63946;51.986;5.930;2022-11-04T11:08:41;11.73;;;8.55;;
75356;SDS011;63946;51.986;5.930;2022-11-04T11:11:12;10.77;;;7.97;;
75356;SDS011;63946;51.986;5.930;2022-11-04T11:13:43;12.65;;;8.35;;
75356;SDS011;63946;51.986;5.930;2022-11-04T11:16:19;8.65;;;6.75;;
75356;SDS011;63946;51.986;5.930;2022-11-04T11:19:16;11.45;;;7.45;;
75356;SDS011;63946;51.986;5.930;2022-11-04T11:21:50;10.48;;;7.80;;
75356;SDS011;63946;51.986;5.930;2022-11-04T11:24:27;11.20;;;7.75;;
75356;SDS011;63946;51.986;5.930;2022-11-04T11:29:31;12.18;;;7.90;;
75356;SDS011;63946;51.986;5.930;2022-11-04T11:32:26;16.50;;;8.50;;
75356;SDS011;63946;51.986;5.930;2022-11-04T11:35:19;8.85;;;7.80;;
75356;SDS011;63946;51.986;5.930;2022-11-04T11:40:27;12.20;;;8.45;;
75356;SDS011;63946;51.986;5.930;2022-11-04T11:43:03;11.65;;;8.05;;
75356;SDS011;63946;51.986;5.930;2022-11-04T11:45:32;11.77;;;8.77;;
75356;SDS011;63946;51.986;5.930;2022-11-04T11:48:17;8.90;;;8.00;;
75356;SDS011;63946;51.986;5.930;2022-11-04T11:51:26;11.63;;;8.50;;
75356;SDS011;63946;51.986;5.930;2022-11-04T11:56:40;12.10;;;7.97;;
75356;SDS011;63946;51.986;5.930;2022-11-04T12:02:12;10.07;;;7.82;;
75356;SDS011;63946;51.986;5.930;2022-11-04T12:04:50;10.80;;;7.70;;
75356;SDS011;63946;51.986;5.930;2022-11-04T12:13:00;13.25;;;9.00;;
75356;SDS011;63946;51.986;5.930;2022-11-04T12:18:30;14.52;;;8.93;;
75356;SDS011;63946;51.986;5.930;2022-11-04T12:24:11;10.30;;;8.15;;
75356;SDS011;63946;51.986;5.930;2022-11-04T12:30:09;12.82;;;10.02;;
75356;SDS011;63946;51.986;5.930;2022-11-04T12:38:35;12.63;;;9.18;;
75356;SDS011;63946;51.986;5.930;2022-11-04T12:50:01;14.27;;;8.82;;
75356;SDS011;63946;51.986;5.930;2022-11-04T13:00:33;13.85;;;8.60;;
75356;SDS011;63946;51.986;5.930;2022-11-04T13:05:55;11.93;;;8.38;;
75356;SDS011;63946;51.986;5.930;2022-11-04T13:11:13;11.52;;;8.48;;
75356;SDS011;63946;51.986;5.930;2022-11-04T13:14:03;13.05;;;8.30;;
75356;SDS011;63946;51.986;5.930;2022-11-04T13:16:38;11.57;;;8.82;;
75356;SDS011;63946;51.986;5.930;2022-11-04T13:22:06;11.68;;;8.65;;
75356;SDS011;63946;51.986;5.930;2022-11-04T13:24:40;11.38;;;9.15;;
75356;SDS011;63946;51.986;5.930;2022-11-04T13:27:36;9.82;;;7.85;;
75356;SDS011;63946;51.986;5.930;2022-11-04T13:35:51;13.23;;;9.70;;
75356;SDS011;63946;51.986;5.930;2022-11-04T13:38:39;11.50;;;9.25;;
75356;SDS011;63946;51.986;5.930;2022-11-04T13:43:46;10.98;;;9.13;;
75356;SDS011;63946;51.986;5.930;2022-11-04T13:46:28;12.18;;;8.65;;
75356;SDS011;63946;51.986;5.930;2022-11-04T13:51:43;12.57;;;8.98;;
75356;SDS011;63946;51.986;5.930;2022-11-04T13:54:24;10.32;;;8.10;;
75356;SDS011;63946;51.986;5.930;2022-11-04T13:57:16;11.60;;;9.10;;
75356;SDS011;63946;51.986;5.930;2022-11-04T14:08:06;10.30;;;8.63;;
75356;SDS011;63946;51.986;5.930;2022-11-04T14:18:45;11.52;;;8.65;;
75356;SDS011;63946;51.986;5.930;2022-11-04T14:21:23;8.57;;;6.95;;
75356;SDS011;63946;51.986;5.930;2022-11-04T14:26:39;13.23;;;9.40;;
75356;SDS011;63946;51.986;5.930;2022-11-04T14:29:14;14.05;;;7.97;;
75356;SDS011;63946;51.986;5.930;2022-11-04T14:31:54;10.70;;;8.43;;
75356;SDS011;63946;51.986;5.930;2022-11-04T14:34:29;12.45;;;8.13;;
75356;SDS011;63946;51.986;5.930;2022-11-04T14:37:06;14.05;;;8.35;;
75356;SDS011;63946;51.986;5.930;2022-11-04T14:39:54;11.73;;;7.60;;
75356;SDS011;63946;51.986;5.930;2022-11-04T14:45:14;12.15;;;8.65;;
75356;SDS011;63946;51.986;5.930;2022-11-04T14:47:55;14.25;;;8.63;;
75356;SDS011;63946;51.986;5.930;2022-11-04T14:50:37;12.38;;;8.27;;
75356;SDS011;63946;51.986;5.930;2022-11-04T14:53:14;13.40;;;9.30;;
75356;SDS011;63946;51.986;5.930;2022-11-04T14:56:04;13.40;;;9.43;;
75356;SDS011;63946;51.986;5.930;2022-11-04T14:58:50;8.82;;;5.75;;
75356;SDS011;63946;51.986;5.930;2022-11-04T15:01:23;4.45;;;3.30;;
75356;SDS011;63946;51.986;5.930;2022-11-04T15:03:58;1.95;;;1.75;;
75356;SDS011;63946;51.986;5.930;2022-11-04T15:06:53;2.13;;;1.40;;
75356;SDS011;63946;51.986;5.930;2022-11-04T15:09:31;2.00;;;1.50;;
75356;SDS011;63946;51.986;5.930;2022-11-04T15:12:08;1.83;;;1.23;;
75356;SDS011;63946;51.986;5.930;2022-11-04T15:14:52;2.55;;;1.10;;
75356;SDS011;63946;51.986;5.930;2022-11-04T15:17:22;1.48;;;1.30;;
75356;SDS011;63946;51.986;5.930;2022-11-04T15:19:54;1.77;;;1.30;;
75356;SDS011;63946;51.986;5.930;2022-11-04T15:22:26;1.92;;;1.02;;
75356;SDS011;63946;51.986;5.930;2022-11-04T15:27:30;2.03;;;1.38;;
75356;SDS011;63946;51.986;5.930;2022-11-04T15:30:00;2.03;;;0.85;;
75356;SDS011;63946;51.986;5.930;2022-11-04T15:32:31;2.35;;;1.63;;
75356;SDS011;63946;51.986;5.930;2022-11-04T15:35:00;2.08;;;1.00;;
75356;SDS011;63946;51.986;5.930;2022-11-04T15:37:30;1.45;;;1.25;;
75356;SDS011;63946;51.986;5.930;2022-11-04T15:40:02;1.30;;;1.08;;
75356;SDS011;63946;51.986;5.930;2022-11-04T15:42:33;3.67;;;1.00;;
75356;SDS011;63946;51.986;5.930;2022-11-04T15:45:25;3.40;;;1.13;;
75356;SDS011;63946;51.986;5.930;2022-11-04T15:48:22;3.17;;;1.27;;
75356;SDS011;63946;51.986;5.930;2022-11-04T15:51:02;3.45;;;1.10;;
75356;SDS011;63946;51.986;5.930;2022-11-04T15:53:48;1.27;;;1.08;;
75356;SDS011;63946;51.986;5.930;2022-11-04T15:56:26;2.78;;;1.42;;
75356;SDS011;63946;51.986;5.930;2022-11-04T15:58:56;4.10;;;1.60;;
75356;SDS011;63946;51.986;5.930;2022-11-04T16:03:58;2.72;;;1.52;;
75356;SDS011;63946;51.986;5.930;2022-11-04T16:06:37;2.60;;;1.13;;
75356;SDS011;63946;51.986;5.930;2022-11-04T16:09:17;2.92;;;1.50;;
75356;SDS011;63946;51.986;5.930;2022-11-04T16:14:47;4.60;;;1.60;;
75356;SDS011;63946;51.986;5.930;2022-11-04T16:17:18;1.73;;;1.30;;
75356;SDS011;63946;51.986;5.930;2022-11-04T16:19:49;6.07;;;2.63;;
75356;SDS011;63946;51.986;5.930;2022-11-04T16:22:26;2.08;;;1.60;;
75356;SDS011;63946;51.986;5.930;2022-11-04T16:25:07;4.00;;;1.70;;
75356;SDS011;63946;51.986;5.930;2022-11-04T16:27:47;4.18;;;1.75;;
75356;SDS011;63946;51.986;5.930;2022-11-04T16:30:17;4.25;;;2.05;;
75356;SDS011;63946;51.986;5.930;2022-11-04T16:32:51;2.50;;;1.95;;
75356;SDS011;63946;51.986;5.930;2022-11-04T16:35:25;3.08;;;1.70;;
75356;SDS011;63946;51.986;5.930;2022-11-04T16:37:55;3.47;;;1.58;;
75356;SDS011;63946;51.986;5.930;2022-11-04T16:40:27;3.55;;;1.40;;
75356;SDS011;63946;51.986;5.930;2022-11-04T16:42:56;2.15;;;1.60;;
75356;SDS011;63946;51.986;5.930;2022-11-04T16:45:27;3.08;;;1.55;;
75356;SDS011;63946;51.986;5.930;2022-11-04T16:47:58;2.00;;;1.33;;
75356;SDS011;63946;51.986;5.930;2022-11-04T16:50:28;1.58;;;1.42;;
75356;SDS011;63946;51.986;5.930;2022-11-04T16:52:57;3.85;;;1.48;;
75356;SDS011;63946;51.986;5.930;2022-11-04T16:55:29;2.42;;;2.05;;
75356;SDS011;63946;51.986;5.930;2022-11-04T16:57:59;4.13;;;1.70;;
75356;SDS011;63946;51.986;5.930;2022-11-04T17:00:32;2.35;;;1.50;;
75356;SDS011;63946;51.986;5.930;2022-11-04T17:03:11;4.10;;;1.90;;
75356;SDS011;63946;51.986;5.930;2022-11-04T17:05:47;2.50;;;1.48;;
75356;SDS011;63946;51.986;5.930;2022-11-04T17:08:18;2.58;;;1.90;;
75356;SDS011;63946;51.986;5.930;2022-11-04T17:10:47;7.60;;;2.42;;
75356;SDS011;63946;51.986;5.930;2022-11-04T17:13:22;4.90;;;2.10;;
75356;SDS011;63946;51.986;5.930;2022-11-04T17:15:51;4.65;;;2.28;;
75356;SDS011;63946;51.986;5.930;2022-11-04T17:18:20;3.60;;;3.15;;
75356;SDS011;63946;51.986;5.930;2022-11-04T17:20:51;6.65;;;3.55;;
75356;SDS011;63946;51.986;5.930;2022-11-04T17:23:21;5.82;;;3.22;;
75356;SDS011;63946;51.986;5.930;2022-11-04T17:25:51;6.82;;;3.22;;
75356;SDS011;63946;51.986;5.930;2022-11-04T17:28:22;5.05;;;2.90;;
75356;SDS011;63946;51.986;5.930;2022-11-04T17:30:51;4.88;;;3.00;;
75356;SDS011;63946;51.986;5.930;2022-11-04T17:33:20;4.22;;;2.33;;
75356;SDS011;63946;51.986;5.930;2022-11-04T17:35:49;5.97;;;2.67;;
75356;SDS011;63946;51.986;5.930;2022-11-04T17:38:21;5.25;;;2.90;;
75356;SDS011;63946;51.986;5.930;2022-11-04T17:40:50;3.58;;;2.40;;
75356;SDS011;63946;51.986;5.930;2022-11-04T17:43:31;4.38;;;2.95;;
75356;SDS011;63946;51.986;5.930;2022-11-04T17:46:14;4.10;;;3.13;;
75356;SDS011;63946;51.986;5.930;2022-11-04T17:48:56;4.88;;;3.13;;
75356;SDS011;63946;51.986;5.930;2022-11-04T17:51:25;3.17;;;2.28;;
75356;SDS011;63946;51.986;5.930;2022-11-04T17:53:54;3.20;;;2.25;;
75356;SDS011;63946;51.986;5.930;2022-11-04T17:56:24;3.83;;;2.60;;
75356;SDS011;63946;51.986;5.930;2022-11-04T17:58:53;4.18;;;3.00;;
75356;SDS011;63946;51.986;5.930;2022-11-04T18:01:24;8.23;;;4.53;;
75356;SDS011;63946;51.986;5.930;2022-11-04T18:03:53;12.70;;;5.97;;
75356;SDS011;63946;51.986;5.930;2022-11-04T18:06:22;10.85;;;5.40;;
75356;SDS011;63946;51.986;5.930;2022-11-04T18:08:53;8.50;;;5.03;;
75356;SDS011;63946;51.986;5.930;2022-11-04T18:11:24;9.52;;;4.97;;
75356;SDS011;63946;51.986;5.930;2022-11-04T18:14:07;10.10;;;5.70;;
75356;SDS011;63946;51.986;5.930;2022-11-04T18:16:39;13.60;;;6.95;;
75356;SDS011;63946;51.986;5.930;2022-11-04T18:19:08;14.55;;;6.00;;
75356;SDS011;63946;51.986;5.930;2022-11-04T18:21:37;8.98;;;4.60;;
75356;SDS011;63946;51.986;5.930;2022-11-04T18:24:06;14.43;;;6.95;;
75356;SDS011;63946;51.986;5.930;2022-11-04T18:26:36;9.60;;;5.80;;
75356;SDS011;63946;51.986;5.930;2022-11-04T18:29:05;8.73;;;6.53;;
75356;SDS011;63946;51.986;5.930;2022-11-04T18:31:35;9.70;;;5.60;;
75356;SDS011;63946;51.986;5.930;2022-11-04T18:34:06;9.27;;;5.97;;
75356;SDS011;63946;51.986;5.930;2022-11-04T18:36:42;8.70;;;5.68;;
75356;SDS011;63946;51.986;5.930;2022-11-04T18:39:12;10.00;;;4.88;;
75356;SDS011;63946;51.986;5.930;2022-11-04T18:41:43;8.45;;;5.15;;
75356;SDS011;63946;51.986;5.930;2022-11-04T18:44:16;9.13;;;5.63;;
75356;SDS011;63946;51.986;5.930;2022-11-04T18:46:47;7.95;;;5.40;;
75356;SDS011;63946;51.986;5.930;2022-11-04T18:49:16;8.35;;;5.05;;
75356;SDS011;63946;51.986;5.930;2022-11-04T18:51:45;9.07;;;5.78;;
75356;SDS011;63946;51.986;5.930;2022-11-04T18:54:14;5.80;;;4.40;;
75356;SDS011;63946;51.986;5.930;2022-11-04T18:56:44;8.60;;;4.88;;
75356;SDS011;63946;51.986;5.930;2022-11-04T18:59:13;9.82;;;6.05;;
75356;SDS011;63946;51.986;5.930;2022-11-04T19:01:43;9.40;;;5.43;;
75356;SDS011;63946;51.986;5.930;2022-11-04T19:04:12;8.57;;;5.43;;
75356;SDS011;63946;51.986;5.930;2022-11-04T19:06:41;9.05;;;5.88;;
75356;SDS011;63946;51.986;5.930;2022-11-04T19:09:12;11.45;;;6.15;;
75356;SDS011;63946;51.986;5.930;2022-11-04T19:11:43;11.45;;;7.43;;
75356;SDS011;63946;51.986;5.930;2022-11-04T19:14:14;11.40;;;7.05;;
75356;SDS011;63946;51.986;5.930;2022-11-04T19:16:46;11.02;;;7.20;;
75356;SDS011;63946;51.986;5.930;2022-11-04T19:19:14;13.88;;;7.88;;
75356;SDS011;63946;51.986;5.930;2022-11-04T19:21:43;17.33;;;8.35;;
75356;SDS011;63946;51.986;5.930;2022-11-04T19:24:14;10.88;;;7.20;;
75356;SDS011;63946;51.986;5.930;2022-11-04T19:26:44;10.85;;;6.43;;
75356;SDS011;63946;51.986;5.930;2022-11-04T19:29:12;13.45;;;6.90;;
75356;SDS011;63946;51.986;5.930;2022-11-04T19:31:41;10.23;;;6.97;;
75356;SDS011;63946;51.986;5.930;2022-11-04T19:34:12;12.10;;;6.93;;
75356;SDS011;63946;51.986;5.930;2022-11-04T19:36:41;10.65;;;6.63;;
75356;SDS011;63946;51.986;5.930;2022-11-04T19:39:09;8.40;;;5.97;;
75356;SDS011;63946;51.986;5.930;2022-11-04T19:41:38;9.98;;;6.65;;
75356;SDS011;63946;51.986;5.930;2022-11-04T19:44:20;8.70;;;6.55;;
75356;SDS011;63946;51.986;5.930;2022-11-04T19:46:49;8.35;;;5.53;;
75356;SDS011;63946;51.986;5.930;2022-11-04T19:49:18;9.80;;;6.70;;
75356;SDS011;63946;51.986;5.930;2022-11-04T19:51:47;7.45;;;5.25;;
75356;SDS011;63946;51.986;5.930;2022-11-04T19:54:16;9.82;;;6.82;;
75356;SDS011;63946;51.986;5.930;2022-11-04T19:56:45;8.30;;;6.35;;
75356;SDS011;63946;51.986;5.930;2022-11-04T19:59:14;8.07;;;6.45;;
75356;SDS011;63946;51.986;5.930;2022-11-04T20:01:43;10.05;;;7.30;;
75356;SDS011;63946;51.986;5.930;2022-11-04T20:04:12;13.27;;;7.30;;
75356;SDS011;63946;51.986;5.930;2022-11-04T20:06:41;10.60;;;6.53;;
75356;SDS011;63946;51.986;5.930;2022-11-04T20:09:15;10.48;;;7.88;;
75356;SDS011;63946;51.986;5.930;2022-11-04T20:11:44;9.98;;;7.03;;
75356;SDS011;63946;51.986;5.930;2022-11-04T20:16:57;12.68;;;8.43;;
75356;SDS011;63946;51.986;5.930;2022-11-04T20:19:28;14.65;;;8.48;;
75356;SDS011;63946;51.986;5.930;2022-11-04T20:21:57;13.30;;;8.93;;
75356;SDS011;63946;51.986;5.930;2022-11-04T20:24:28;13.35;;;7.75;;
75356;SDS011;63946;51.986;5.930;2022-11-04T20:27:00;10.05;;;8.02;;
75356;SDS011;63946;51.986;5.930;2022-11-04T20:29:29;12.93;;;8.25;;
75356;SDS011;63946;51.986;5.930;2022-11-04T20:31:58;10.38;;;7.57;;
75356;SDS011;63946;51.986;5.930;2022-11-04T20:34:27;9.38;;;7.22;;
75356;SDS011;63946;51.986;5.930;2022-11-04T20:36:58;10.15;;;8.15;;
75356;SDS011;63946;51.986;5.930;2022-11-04T20:39:27;9.82;;;6.32;;
75356;SDS011;63946;51.986;5.930;2022-11-04T20:41:56;11.80;;;8.55;;
75356;SDS011;63946;51.986;5.930;2022-11-04T20:44:25;13.35;;;8.95;;
75356;SDS011;63946;51.986;5.930;2022-11-04T20:46:54;12.43;;;8.85;;
75356;SDS011;63946;51.986;5.930;2022-11-04T20:49:23;12.00;;;8.30;;
75356;SDS011;63946;51.986;5.930;2022-11-04T20:51:55;16.65;;;8.95;;
75356;SDS011;63946;51.986;5.930;2022-11-04T20:54:24;13.82;;;9.48;;
75356;SDS011;63946;51.986;5.930;2022-11-04T20:56:54;12.13;;;8.02;;
75356;SDS011;63946;51.986;5.930;2022-11-04T20:59:24;13.40;;;9.68;;
75356;SDS011;63946;51.986;5.930;2022-11-04T21:01:55;14.43;;;8.95;;
75356;SDS011;63946;51.986;5.930;2022-11-04T21:04:24;13.15;;;8.13;;
75356;SDS011;63946;51.986;5.930;2022-11-04T21:06:56;12.50;;;9.25;;
75356;SDS011;63946;51.986;5.930;2022-11-04T21:09:25;13.13;;;8.52;;
75356;SDS011;63946;51.986;5.930;2022-11-04T21:11:54;11.02;;;8.23;;
75356;SDS011;63946;51.986;5.930;2022-11-04T21:14:24;15.02;;;8.52;;
75356;SDS011;63946;51.986;5.930;2022-11-04T21:19:26;14.98;;;8.70;;
75356;SDS011;63946;51.986;5.930;2022-11-04T21:21:58;11.63;;;8.43;;
75356;SDS011;63946;51.986;5.930;2022-11-04T21:24:27;11.18;;;8.95;;
75356;SDS011;63946;51.986;5.930;2022-11-04T21:26:57;12.07;;;8.35;;
75356;SDS011;63946;51.986;5.930;2022-11-04T21:29:26;14.13;;;9.52;;
75356;SDS011;63946;51.986;5.930;2022-11-04T21:31:55;21.45;;;11.95;;
75356;SDS011;63946;51.986;5.930;2022-11-04T21:34:24;15.38;;;10.40;;
75356;SDS011;63946;51.986;5.930;2022-11-04T21:36:53;16.27;;;10.63;;
75356;SDS011;63946;51.986;5.930;2022-11-04T21:39:22;14.55;;;9.85;;
75356;SDS011;63946;51.986;5.930;2022-11-04T21:41:51;13.48;;;9.15;;
75356;SDS011;63946;51.986;5.930;2022-11-04T21:44:19;12.00;;;8.75;;
75356;SDS011;63946;51.986;5.930;2022-11-04T21:46:48;12.65;;;8.18;;
75356;SDS011;63946;51.986;5.930;2022-11-04T21:49:18;11.32;;;7.60;;
75356;SDS011;63946;51.986;5.930;2022-11-04T21:51:47;8.70;;;6.60;;
75356;SDS011;63946;51.986;5.930;2022-11-04T21:54:16;10.15;;;6.38;;
75356;SDS011;63946;51.986;5.930;2022-11-04T21:56:45;11.30;;;7.68;;
75356;SDS011;63946;51.986;5.930;2022-11-04T21:59:14;13.85;;;8.23;;
75356;SDS011;63946;51.986;5.930;2022-11-04T22:01:42;10.25;;;6.30;;
75356;SDS011;63946;51.986;5.930;2022-11-04T22:04:11;11.27;;;7.53;;
75356;SDS011;63946;51.986;5.930;2022-11-04T22:06:40;9.20;;;6.32;;
75356;SDS011;63946;51.986;5.930;2022-11-04T22:09:09;10.43;;;7.07;;
75356;SDS011;63946;51.986;5.930;2022-11-04T22:11:41;13.38;;;8.68;;
75356;SDS011;63946;51.986;5.930;2022-11-04T22:14:10;11.93;;;8.10;;
75356;SDS011;63946;51.986;5.930;2022-11-04T22:16:39;13.13;;;6.88;;
75356;SDS011;63946;51.986;5.930;2022-11-04T22:19:09;10.48;;;8.05;;
75356;SDS011;63946;51.986;5.930;2022-11-04T22:21:39;6.95;;;5.75;;
75356;SDS011;63946;51.986;5.930;2022-11-04T22:24:10;8.73;;;6.75;;
